sensor_id;sensor_type;location;lat;lon;timestamp;pressure;altitude;pressure_sealevel;temperature;humidity
36834;BME280;48003;52.084;5.224;2024-03-02T00:00:39;99813.0;;;10.24;72.94
36834;BME280;48003;52.084;5.224;2024-03-02T00:02:18;99814.0;;;10.33;73.02
36834;BME280;48003;52.084;5.224;2024-03-02T00:03:54;99810.0;;;10.28;73.09
36834;BME280;48003;52.084;5.224;2024-03-02T00:07:07;99820.0;;;10.22;73.11
36834;BME280;48003;52.084;5.224;2024-03-02T00:08:43;99831.0;;;10.21;73.58
36834;BME280;48003;52.084;5.224;2024-03-02T00:10:20;99840.0;;;10.27;73.42
36834;BME280;48003;52.084;5.224;2024-03-02T00:13:36;99843.0;;;10.18;73.22
36834;BME280;48003;52.084;5.224;2024-03-02T00:15:29;99843.0;;;10.16;73.67
36834;BME280;48003;52.084;5.224;2024-03-02T00:17:20;99857.0;;;10.22;72.95
36834;BME280;48003;52.084;5.224;2024-03-02T00:19:02;99872.0;;;10.37;73.02
36834;BME280;48003;52.084;5.224;2024-03-02T00:20:39;99923.0;;;10.66;71.84
36834;BME280;48003;52.084;5.224;2024-03-02T00:23:53;99928.0;;;10.53;73.28
36834;BME280;48003;52.084;5.224;2024-03-02T00:25:36;99936.0;;;10.44;74.55
36834;BME280;48003;52.084;5.224;2024-03-02T00:27:14;99926.0;;;10.65;74.55
36834;BME280;48003;52.084;5.224;2024-03-02T00:28:54;99926.0;;;10.82;74.69
36834;BME280;48003;52.084;5.224;2024-03-02T00:32:35;99920.0;;;10.74;75.3
36834;BME280;48003;52.084;5.224;2024-03-02T00:34:13;99923.0;;;10.76;75.3
36834;BME280;48003;52.084;5.224;2024-03-02T00:35:50;99917.0;;;10.82;75.7
36834;BME280;48003;52.084;5.224;2024-03-02T00:40:39;99925.0;;;10.24;79.02
36834;BME280;48003;52.084;5.224;2024-03-02T00:42:15;99926.0;;;10.23;79.5
36834;BME280;48003;52.084;5.224;2024-03-02T00:43:57;99924.0;;;10.11;80.74
36834;BME280;48003;52.084;5.224;2024-03-02T00:45:34;99927.0;;;10.25;80.37
36834;BME280;48003;52.084;5.224;2024-03-02T00:48:52;99930.0;;;10.58;79.55
36834;BME280;48003;52.084;5.224;2024-03-02T00:50:29;99927.0;;;10.22;81.42
36834;BME280;48003;52.084;5.224;2024-03-02T00:52:06;99920.0;;;9.88;83.05
36834;BME280;48003;52.084;5.224;2024-03-02T00:55:20;99932.0;;;9.65;84.98
36834;BME280;48003;52.084;5.224;2024-03-02T00:57:00;99927.0;;;9.39;86.92
36834;BME280;48003;52.084;5.224;2024-03-02T00:58:36;99934.0;;;9.4;87.0
36834;BME280;48003;52.084;5.224;2024-03-02T01:00:13;99940.0;;;9.35;87.78
36834;BME280;48003;52.084;5.224;2024-03-02T01:03:25;99950.0;;;9.92;85.55
36834;BME280;48003;52.084;5.224;2024-03-02T01:05:01;99942.0;;;9.38;88.35
36834;BME280;48003;52.084;5.224;2024-03-02T01:06:37;99934.0;;;9.68;87.28
36834;BME280;48003;52.084;5.224;2024-03-02T01:09:50;99933.0;;;9.17;89.2
36834;BME280;48003;52.084;5.224;2024-03-02T01:11:26;99925.0;;;9.31;89.97
36834;BME280;48003;52.084;5.224;2024-03-02T01:13:02;99935.0;;;9.23;90.3
36834;BME280;48003;52.084;5.224;2024-03-02T01:16:14;99942.0;;;9.28;89.65
36834;BME280;48003;52.084;5.224;2024-03-02T01:17:50;99943.0;;;9.36;90.38
36834;BME280;48003;52.084;5.224;2024-03-02T01:19:26;99945.0;;;9.49;89.26
36834;BME280;48003;52.084;5.224;2024-03-02T01:21:03;99942.0;;;9.76;88.32
36834;BME280;48003;52.084;5.224;2024-03-02T01:24:16;99950.0;;;9.61;88.26
36834;BME280;48003;52.084;5.224;2024-03-02T01:25:52;99953.0;;;9.39;89.26
36834;BME280;48003;52.084;5.224;2024-03-02T01:27:29;99952.0;;;9.23;90.64
36834;BME280;48003;52.084;5.224;2024-03-02T01:30:41;99941.0;;;9.14;91.12
36834;BME280;48003;52.084;5.224;2024-03-02T01:32:17;99948.0;;;9.11;91.0
36834;BME280;48003;52.084;5.224;2024-03-02T01:33:53;99958.0;;;9.57;89.45
36834;BME280;48003;52.084;5.224;2024-03-02T01:37:06;99963.0;;;9.4;90.28
36834;BME280;48003;52.084;5.224;2024-03-02T01:38:42;99958.0;;;9.31;90.62
36834;BME280;48003;52.084;5.224;2024-03-02T01:40:18;99961.0;;;9.19;91.04
36834;BME280;48003;52.084;5.224;2024-03-02T01:43:30;99963.0;;;9.36;90.86
36834;BME280;48003;52.084;5.224;2024-03-02T01:45:07;99957.0;;;9.14;91.54
36834;BME280;48003;52.084;5.224;2024-03-02T01:46:44;99970.0;;;8.98;91.99
36834;BME280;48003;52.084;5.224;2024-03-02T01:48:20;99981.0;;;9.26;90.97
36834;BME280;48003;52.084;5.224;2024-03-02T01:51:32;99975.0;;;9.4;89.83
36834;BME280;48003;52.084;5.224;2024-03-02T01:53:09;99976.0;;;9.16;90.9
36834;BME280;48003;52.084;5.224;2024-03-02T01:54:44;99985.0;;;9.02;91.49
36834;BME280;48003;52.084;5.224;2024-03-02T01:57:57;99980.0;;;9.0;91.73
36834;BME280;48003;52.084;5.224;2024-03-02T01:59:33;99980.0;;;8.99;92.34
36834;BME280;48003;52.084;5.224;2024-03-02T02:01:09;99969.0;;;9.35;90.05
36834;BME280;48003;52.084;5.224;2024-03-02T02:04:21;99968.0;;;9.05;91.28
36834;BME280;48003;52.084;5.224;2024-03-02T02:05:57;99967.0;;;8.97;92.13
36834;BME280;48003;52.084;5.224;2024-03-02T02:07:34;99975.0;;;9.47;89.96
36834;BME280;48003;52.084;5.224;2024-03-02T02:09:11;99972.0;;;8.98;91.33
36834;BME280;48003;52.084;5.224;2024-03-02T02:12:23;99975.0;;;9.15;91.93
36834;BME280;48003;52.084;5.224;2024-03-02T02:14:00;99989.0;;;9.1;91.71
36834;BME280;48003;52.084;5.224;2024-03-02T02:15:36;99983.0;;;8.98;92.65
36834;BME280;48003;52.084;5.224;2024-03-02T02:18:48;99988.0;;;9.24;91.25
36834;BME280;48003;52.084;5.224;2024-03-02T02:20:25;99972.0;;;9.09;92.41
36834;BME280;48003;52.084;5.224;2024-03-02T02:22:01;99962.0;;;9.08;91.7
36834;BME280;48003;52.084;5.224;2024-03-02T02:25:14;99970.0;;;8.8;93.24
36834;BME280;48003;52.084;5.224;2024-03-02T02:26:50;99964.0;;;8.92;92.47
36834;BME280;48003;52.084;5.224;2024-03-02T02:28:26;99955.0;;;8.94;93.66
36834;BME280;48003;52.084;5.224;2024-03-02T02:31:40;99951.0;;;9.02;92.92
36834;BME280;48003;52.084;5.224;2024-03-02T02:33:16;99969.0;;;9.15;92.15
36834;BME280;48003;52.084;5.224;2024-03-02T02:34:52;99973.0;;;8.98;93.6
36834;BME280;48003;52.084;5.224;2024-03-02T02:36:29;99968.0;;;8.69;94.26
36834;BME280;48003;52.084;5.224;2024-03-02T02:39:41;99959.0;;;8.5;95.56
36834;BME280;48003;52.084;5.224;2024-03-02T02:41:17;99967.0;;;8.55;95.43
36834;BME280;48003;52.084;5.224;2024-03-02T02:42:53;99966.0;;;8.42;96.25
36834;BME280;48003;52.084;5.224;2024-03-02T02:46:05;99964.0;;;8.33;96.98
36834;BME280;48003;52.084;5.224;2024-03-02T02:47:42;99971.0;;;8.43;97.28
36834;BME280;48003;52.084;5.224;2024-03-02T02:49:19;99969.0;;;8.57;96.58
36834;BME280;48003;52.084;5.224;2024-03-02T02:52:31;99972.0;;;8.49;95.87
36834;BME280;48003;52.084;5.224;2024-03-02T02:54:08;99963.0;;;8.59;95.13
36834;BME280;48003;52.084;5.224;2024-03-02T02:55:44;99963.0;;;8.91;94.33
36834;BME280;48003;52.084;5.224;2024-03-02T02:57:20;99975.0;;;8.58;94.57
36834;BME280;48003;52.084;5.224;2024-03-02T03:00:33;99963.0;;;8.45;94.27
36834;BME280;48003;52.084;5.224;2024-03-02T03:02:09;99964.0;;;8.49;94.73
36834;BME280;48003;52.084;5.224;2024-03-02T03:03:45;99966.0;;;8.48;94.11
36834;BME280;48003;52.084;5.224;2024-03-02T03:06:58;99970.0;;;8.57;93.0
36834;BME280;48003;52.084;5.224;2024-03-02T03:08:34;99970.0;;;8.34;93.72
36834;BME280;48003;52.084;5.224;2024-03-02T03:10:10;99969.0;;;8.38;94.12
36834;BME280;48003;52.084;5.224;2024-03-02T03:13:22;99961.0;;;8.64;92.87
36834;BME280;48003;52.084;5.224;2024-03-02T03:14:59;99958.0;;;8.69;92.61
36834;BME280;48003;52.084;5.224;2024-03-02T03:16:36;99967.0;;;8.76;92.2
36834;BME280;48003;52.084;5.224;2024-03-02T03:18:12;99965.0;;;8.68;92.16
36834;BME280;48003;52.084;5.224;2024-03-02T03:21:24;99969.0;;;8.44;92.49
36834;BME280;48003;52.084;5.224;2024-03-02T03:23:00;99975.0;;;8.47;92.28
36834;BME280;48003;52.084;5.224;2024-03-02T03:24:36;99964.0;;;8.65;92.03
36834;BME280;48003;52.084;5.224;2024-03-02T03:27:48;99964.0;;;8.44;92.71
36834;BME280;48003;52.084;5.224;2024-03-02T03:29:24;99968.0;;;8.42;92.72
36834;BME280;48003;52.084;5.224;2024-03-02T03:31:01;99973.0;;;8.73;90.7
36834;BME280;48003;52.084;5.224;2024-03-02T03:34:13;99969.0;;;8.61;90.63
36834;BME280;48003;52.084;5.224;2024-03-02T03:35:49;99981.0;;;8.58;90.7
36834;BME280;48003;52.084;5.224;2024-03-02T03:37:25;99977.0;;;8.77;88.95
36834;BME280;48003;52.084;5.224;2024-03-02T03:40:41;99972.0;;;8.4;90.55
36834;BME280;48003;52.084;5.224;2024-03-02T03:42:17;99980.0;;;8.56;90.58
36834;BME280;48003;52.084;5.224;2024-03-02T03:43:54;99982.0;;;8.73;89.72
36834;BME280;48003;52.084;5.224;2024-03-02T03:45:30;99981.0;;;8.74;90.11
36834;BME280;48003;52.084;5.224;2024-03-02T03:48:42;99994.0;;;8.83;89.35
36834;BME280;48003;52.084;5.224;2024-03-02T03:50:18;99990.0;;;8.57;89.67
36834;BME280;48003;52.084;5.224;2024-03-02T03:51:54;99988.0;;;8.64;89.63
36834;BME280;48003;52.084;5.224;2024-03-02T03:55:07;99991.0;;;8.63;89.49
36834;BME280;48003;52.084;5.224;2024-03-02T03:56:43;99993.0;;;8.73;89.47
36834;BME280;48003;52.084;5.224;2024-03-02T03:58:20;99993.0;;;8.83;89.13
36834;BME280;48003;52.084;5.224;2024-03-02T04:01:32;99987.0;;;8.58;89.95
36834;BME280;48003;52.084;5.224;2024-03-02T04:03:08;99990.0;;;8.56;89.92
36834;BME280;48003;52.084;5.224;2024-03-02T04:04:44;99997.0;;;8.86;89.23
36834;BME280;48003;52.084;5.224;2024-03-02T04:06:20;99997.0;;;8.63;89.89
36834;BME280;48003;52.084;5.224;2024-03-02T04:09:32;99995.0;;;8.9;89.03
36834;BME280;48003;52.084;5.224;2024-03-02T04:11:09;99997.0;;;8.59;89.66
36834;BME280;48003;52.084;5.224;2024-03-02T04:12:45;100000.0;;;8.58;89.7
36834;BME280;48003;52.084;5.224;2024-03-02T04:15:57;100005.0;;;8.59;89.69
36834;BME280;48003;52.084;5.224;2024-03-02T04:17:33;100005.0;;;8.82;88.79
36834;BME280;48003;52.084;5.224;2024-03-02T04:19:09;99998.0;;;8.71;89.87
36834;BME280;48003;52.084;5.224;2024-03-02T04:22:21;100012.0;;;8.72;89.34
36834;BME280;48003;52.084;5.224;2024-03-02T04:23:57;100003.0;;;8.71;89.4
36834;BME280;48003;52.084;5.224;2024-03-02T04:25:34;100001.0;;;8.63;89.88
36834;BME280;48003;52.084;5.224;2024-03-02T04:28:46;100006.0;;;8.63;90.29
36834;BME280;48003;52.084;5.224;2024-03-02T04:30:22;100003.0;;;8.67;89.93
36834;BME280;48003;52.084;5.224;2024-03-02T04:31:58;100002.0;;;8.77;89.15
36834;BME280;48003;52.084;5.224;2024-03-02T04:33:34;100000.0;;;8.77;89.21
36834;BME280;48003;52.084;5.224;2024-03-02T04:36:46;100002.0;;;8.82;89.24
36834;BME280;48003;52.084;5.224;2024-03-02T04:38:23;100003.0;;;8.81;89.86
36834;BME280;48003;52.084;5.224;2024-03-02T04:39:59;100003.0;;;8.92;88.84
36834;BME280;48003;52.084;5.224;2024-03-02T04:43:11;100009.0;;;8.77;89.13
36834;BME280;48003;52.084;5.224;2024-03-02T04:44:47;100011.0;;;8.74;89.41
36834;BME280;48003;52.084;5.224;2024-03-02T04:46:23;100006.0;;;8.61;89.72
36834;BME280;48003;52.084;5.224;2024-03-02T04:49:35;100011.0;;;8.73;89.3
36834;BME280;48003;52.084;5.224;2024-03-02T04:51:11;100011.0;;;8.6;89.35
36834;BME280;48003;52.084;5.224;2024-03-02T04:52:47;100008.0;;;8.58;89.3
36834;BME280;48003;52.084;5.224;2024-03-02T04:56:00;100010.0;;;8.66;89.13
36834;BME280;48003;52.084;5.224;2024-03-02T04:57:36;100020.0;;;8.53;88.97
36834;BME280;48003;52.084;5.224;2024-03-02T04:59:15;100023.0;;;8.41;89.61
36834;BME280;48003;52.084;5.224;2024-03-02T05:00:51;100024.0;;;8.61;88.86
36834;BME280;48003;52.084;5.224;2024-03-02T05:04:03;100028.0;;;8.73;88.4
36834;BME280;48003;52.084;5.224;2024-03-02T05:05:39;100035.0;;;8.63;88.08
36834;BME280;48003;52.084;5.224;2024-03-02T05:07:15;100035.0;;;8.5;88.12
36834;BME280;48003;52.084;5.224;2024-03-02T05:10:28;100036.0;;;8.3;88.67
36834;BME280;48003;52.084;5.224;2024-03-02T05:12:04;100036.0;;;8.41;88.88
36834;BME280;48003;52.084;5.224;2024-03-02T05:13:41;100030.0;;;8.67;87.76
36834;BME280;48003;52.084;5.224;2024-03-02T05:16:53;100033.0;;;8.4;88.48
36834;BME280;48003;52.084;5.224;2024-03-02T05:18:29;100038.0;;;8.6;87.16
36834;BME280;48003;52.084;5.224;2024-03-02T05:20:07;100041.0;;;8.24;88.67
36834;BME280;48003;52.084;5.224;2024-03-02T05:21:43;100042.0;;;8.47;88.05
36834;BME280;48003;52.084;5.224;2024-03-02T05:24:56;100044.0;;;8.23;88.65
36834;BME280;48003;52.084;5.224;2024-03-02T05:26:33;100046.0;;;8.48;87.09
36834;BME280;48003;52.084;5.224;2024-03-02T05:28:09;100048.0;;;8.51;87.27
36834;BME280;48003;52.084;5.224;2024-03-02T05:31:21;100049.0;;;8.49;86.96
36834;BME280;48003;52.084;5.224;2024-03-02T05:32:57;100046.0;;;8.31;87.29
36834;BME280;48003;52.084;5.224;2024-03-02T05:34:33;100053.0;;;8.38;87.51
36834;BME280;48003;52.084;5.224;2024-03-02T05:37:45;100061.0;;;8.22;87.94
36834;BME280;48003;52.084;5.224;2024-03-02T05:39:22;100052.0;;;8.43;87.43
36834;BME280;48003;52.084;5.224;2024-03-02T05:40:58;100050.0;;;8.51;86.91
36834;BME280;48003;52.084;5.224;2024-03-02T05:42:34;100058.0;;;8.35;86.96
36834;BME280;48003;52.084;5.224;2024-03-02T05:45:46;100056.0;;;8.36;87.05
36834;BME280;48003;52.084;5.224;2024-03-02T05:47:22;100059.0;;;8.35;87.04
36834;BME280;48003;52.084;5.224;2024-03-02T05:48:59;100061.0;;;8.32;86.8
36834;BME280;48003;52.084;5.224;2024-03-02T05:52:11;100061.0;;;8.89;84.6
36834;BME280;48003;52.084;5.224;2024-03-02T05:53:48;100068.0;;;8.48;85.23
36834;BME280;48003;52.084;5.224;2024-03-02T05:55:24;100066.0;;;8.48;84.86
36834;BME280;48003;52.084;5.224;2024-03-02T05:58:36;100064.0;;;8.48;85.24
36834;BME280;48003;52.084;5.224;2024-03-02T06:00:12;100066.0;;;8.56;84.78
36834;BME280;48003;52.084;5.224;2024-03-02T06:01:49;100068.0;;;8.49;85.65
36834;BME280;48003;52.084;5.224;2024-03-02T06:05:01;100067.0;;;8.44;85.82
36834;BME280;48003;52.084;5.224;2024-03-02T06:06:37;100072.0;;;8.56;85.66
36834;BME280;48003;52.084;5.224;2024-03-02T06:08:13;100080.0;;;8.75;84.2
36834;BME280;48003;52.084;5.224;2024-03-02T06:09:50;100074.0;;;8.85;84.17
36834;BME280;48003;52.084;5.224;2024-03-02T06:13:02;100088.0;;;8.75;84.66
36834;BME280;48003;52.084;5.224;2024-03-02T06:14:38;100077.0;;;8.58;84.96
36834;BME280;48003;52.084;5.224;2024-03-02T06:16:14;100080.0;;;8.5;84.94
36834;BME280;48003;52.084;5.224;2024-03-02T06:19:26;100081.0;;;8.85;84.19
36834;BME280;48003;52.084;5.224;2024-03-02T06:21:03;100081.0;;;8.81;83.33
36834;BME280;48003;52.084;5.224;2024-03-02T06:22:39;100087.0;;;8.81;83.84
36834;BME280;48003;52.084;5.224;2024-03-02T06:25:52;100083.0;;;8.58;84.26
36834;BME280;48003;52.084;5.224;2024-03-02T06:27:28;100087.0;;;8.74;84.48
36834;BME280;48003;52.084;5.224;2024-03-02T06:29:04;100099.0;;;8.61;84.73
36834;BME280;48003;52.084;5.224;2024-03-02T06:30:40;100092.0;;;8.73;83.98
36834;BME280;48003;52.084;5.224;2024-03-02T06:33:52;100102.0;;;8.49;84.52
36834;BME280;48003;52.084;5.224;2024-03-02T06:35:28;100098.0;;;8.56;84.49
36834;BME280;48003;52.084;5.224;2024-03-02T06:37:04;100105.0;;;8.52;84.91
36834;BME280;48003;52.084;5.224;2024-03-02T06:40:16;100103.0;;;8.28;85.8
36834;BME280;48003;52.084;5.224;2024-03-02T06:41:53;100105.0;;;8.4;85.58
36834;BME280;48003;52.084;5.224;2024-03-02T06:43:29;100106.0;;;8.38;85.37
36834;BME280;48003;52.084;5.224;2024-03-02T06:46:42;100092.0;;;8.52;84.56
36834;BME280;48003;52.084;5.224;2024-03-02T06:48:18;100093.0;;;8.49;84.39
36834;BME280;48003;52.084;5.224;2024-03-02T06:49:55;100102.0;;;8.45;84.23
36834;BME280;48003;52.084;5.224;2024-03-02T06:53:09;100108.0;;;8.28;85.01
36834;BME280;48003;52.084;5.224;2024-03-02T06:54:46;100100.0;;;8.56;84.08
36834;BME280;48003;52.084;5.224;2024-03-02T06:56:21;100096.0;;;8.56;84.0
36834;BME280;48003;52.084;5.224;2024-03-02T06:57:58;100099.0;;;8.31;84.29
36834;BME280;48003;52.084;5.224;2024-03-02T07:01:10;100105.0;;;8.51;83.71
36834;BME280;48003;52.084;5.224;2024-03-02T07:02:46;100108.0;;;8.67;83.03
36834;BME280;48003;52.084;5.224;2024-03-02T07:04:22;100105.0;;;8.83;82.32
36834;BME280;48003;52.084;5.224;2024-03-02T07:07:34;100098.0;;;8.59;82.33
36834;BME280;48003;52.084;5.224;2024-03-02T07:09:11;100100.0;;;8.97;81.77
36834;BME280;48003;52.084;5.224;2024-03-02T07:10:47;100105.0;;;8.74;82.41
36834;BME280;48003;52.084;5.224;2024-03-02T07:13:59;100102.0;;;8.97;81.81
36834;BME280;48003;52.084;5.224;2024-03-02T07:15:38;100101.0;;;8.89;81.33
36834;BME280;48003;52.084;5.224;2024-03-02T07:17:14;100107.0;;;8.61;82.09
36834;BME280;48003;52.084;5.224;2024-03-02T07:18:50;100113.0;;;8.5;82.83
36834;BME280;48003;52.084;5.224;2024-03-02T07:22:06;100114.0;;;8.55;82.65
36834;BME280;48003;52.084;5.224;2024-03-02T07:23:42;100113.0;;;8.47;82.94
36834;BME280;48003;52.084;5.224;2024-03-02T07:25:18;100113.0;;;8.71;82.47
36834;BME280;48003;52.084;5.224;2024-03-02T07:28:31;100124.0;;;8.73;81.98
36834;BME280;48003;52.084;5.224;2024-03-02T07:30:07;100120.0;;;8.64;82.12
36834;BME280;48003;52.084;5.224;2024-03-02T07:31:44;100122.0;;;8.73;81.19
36834;BME280;48003;52.084;5.224;2024-03-02T07:34:56;100120.0;;;8.72;80.95
36834;BME280;48003;52.084;5.224;2024-03-02T07:36:32;100127.0;;;8.82;80.95
36834;BME280;48003;52.084;5.224;2024-03-02T07:38:08;100131.0;;;8.69;80.87
36834;BME280;48003;52.084;5.224;2024-03-02T07:39:44;100137.0;;;8.58;81.58
36834;BME280;48003;52.084;5.224;2024-03-02T07:42:57;100140.0;;;8.68;81.41
36834;BME280;48003;52.084;5.224;2024-03-02T07:44:33;100146.0;;;8.65;81.23
36834;BME280;48003;52.084;5.224;2024-03-02T07:46:09;100151.0;;;8.64;81.31
36834;BME280;48003;52.084;5.224;2024-03-02T07:49:25;100149.0;;;8.8;80.11
36834;BME280;48003;52.084;5.224;2024-03-02T07:51:01;100152.0;;;8.72;80.41
36834;BME280;48003;52.084;5.224;2024-03-02T07:52:37;100153.0;;;8.69;80.5
36834;BME280;48003;52.084;5.224;2024-03-02T07:55:49;100149.0;;;8.59;81.13
36834;BME280;48003;52.084;5.224;2024-03-02T07:57:25;100143.0;;;8.59;81.25
36834;BME280;48003;52.084;5.224;2024-03-02T07:59:02;100147.0;;;8.78;81.0
36834;BME280;48003;52.084;5.224;2024-03-02T08:00:39;100147.0;;;8.84;80.77
36834;BME280;48003;52.084;5.224;2024-03-02T08:03:51;100147.0;;;8.47;82.62
36834;BME280;48003;52.084;5.224;2024-03-02T08:05:27;100153.0;;;8.53;82.79
36834;BME280;48003;52.084;5.224;2024-03-02T08:07:03;100158.0;;;8.66;82.32
36834;BME280;48003;52.084;5.224;2024-03-02T08:10:16;100160.0;;;8.48;82.46
36834;BME280;48003;52.084;5.224;2024-03-02T08:11:52;100159.0;;;8.35;82.95
36834;BME280;48003;52.084;5.224;2024-03-02T08:13:28;100162.0;;;8.84;81.13
36834;BME280;48003;52.084;5.224;2024-03-02T08:16:42;100159.0;;;8.5;82.07
36834;BME280;48003;52.084;5.224;2024-03-02T08:18:18;100175.0;;;8.47;82.03
36834;BME280;48003;52.084;5.224;2024-03-02T08:19:54;100165.0;;;8.53;82.25
36834;BME280;48003;52.084;5.224;2024-03-02T08:23:09;100158.0;;;8.35;82.99
36834;BME280;48003;52.084;5.224;2024-03-02T08:24:45;100165.0;;;8.44;82.77
36834;BME280;48003;52.084;5.224;2024-03-02T08:26:21;100170.0;;;8.42;82.97
36834;BME280;48003;52.084;5.224;2024-03-02T08:27:57;100159.0;;;8.73;82.09
36834;BME280;48003;52.084;5.224;2024-03-02T08:31:10;100155.0;;;8.85;81.77
36834;BME280;48003;52.084;5.224;2024-03-02T08:32:49;100155.0;;;8.73;81.89
36834;BME280;48003;52.084;5.224;2024-03-02T08:34:25;100157.0;;;8.72;82.38
36834;BME280;48003;52.084;5.224;2024-03-02T08:37:39;100153.0;;;8.77;82.03
36834;BME280;48003;52.084;5.224;2024-03-02T08:39:17;100155.0;;;8.8;81.75
36834;BME280;48003;52.084;5.224;2024-03-02T08:40:53;100140.0;;;8.86;81.66
36834;BME280;48003;52.084;5.224;2024-03-02T08:42:29;100143.0;;;8.78;81.75
36834;BME280;48003;52.084;5.224;2024-03-02T08:45:42;100149.0;;;8.98;81.27
36834;BME280;48003;52.084;5.224;2024-03-02T08:47:19;100148.0;;;9.07;81.31
36834;BME280;48003;52.084;5.224;2024-03-02T08:48:55;100141.0;;;8.93;80.56
36834;BME280;48003;52.084;5.224;2024-03-02T08:52:07;100141.0;;;9.05;80.77
36834;BME280;48003;52.084;5.224;2024-03-02T08:53:43;100145.0;;;8.96;81.27
36834;BME280;48003;52.084;5.224;2024-03-02T08:55:19;100146.0;;;9.05;81.13
36834;BME280;48003;52.084;5.224;2024-03-02T08:58:31;100137.0;;;9.1;80.8
36834;BME280;48003;52.084;5.224;2024-03-02T09:00:08;100150.0;;;9.0;80.89
36834;BME280;48003;52.084;5.224;2024-03-02T09:01:45;100155.0;;;9.07;80.44
36834;BME280;48003;52.084;5.224;2024-03-02T09:04:57;100146.0;;;9.11;80.61
36834;BME280;48003;52.084;5.224;2024-03-02T09:06:33;100158.0;;;9.14;80.41
36834;BME280;48003;52.084;5.224;2024-03-02T09:08:09;100162.0;;;9.15;80.0
36834;BME280;48003;52.084;5.224;2024-03-02T09:09:45;100164.0;;;9.14;79.17
36834;BME280;48003;52.084;5.224;2024-03-02T09:12:58;100164.0;;;9.28;78.97
36834;BME280;48003;52.084;5.224;2024-03-02T09:14:35;100160.0;;;9.39;78.23
36834;BME280;48003;52.084;5.224;2024-03-02T09:16:12;100165.0;;;9.38;78.66
36834;BME280;48003;52.084;5.224;2024-03-02T09:19:24;100159.0;;;9.66;78.67
36834;BME280;48003;52.084;5.224;2024-03-02T09:21:00;100161.0;;;9.69;78.53
36834;BME280;48003;52.084;5.224;2024-03-02T09:22:36;100159.0;;;9.78;77.41
36834;BME280;48003;52.084;5.224;2024-03-02T09:25:48;100166.0;;;9.76;77.33
36834;BME280;48003;52.084;5.224;2024-03-02T09:27:24;100162.0;;;9.64;76.16
36834;BME280;48003;52.084;5.224;2024-03-02T09:29:00;100187.0;;;9.86;75.11
36834;BME280;48003;52.084;5.224;2024-03-02T09:30:36;100184.0;;;9.67;74.86
36834;BME280;48003;52.084;5.224;2024-03-02T09:33:50;100180.0;;;9.74;74.87
36834;BME280;48003;52.084;5.224;2024-03-02T09:35:26;100172.0;;;9.78;75.06
36834;BME280;48003;52.084;5.224;2024-03-02T09:37:02;100176.0;;;9.78;73.72
36834;BME280;48003;52.084;5.224;2024-03-02T09:40:14;100171.0;;;9.92;73.61
36834;BME280;48003;52.084;5.224;2024-03-02T09:41:50;100167.0;;;9.98;73.74
36834;BME280;48003;52.084;5.224;2024-03-02T09:43:26;100161.0;;;9.97;73.27
36834;BME280;48003;52.084;5.224;2024-03-02T09:46:40;100164.0;;;10.06;73.28
36834;BME280;48003;52.084;5.224;2024-03-02T09:48:15;100168.0;;;10.46;71.91
36834;BME280;48003;52.084;5.224;2024-03-02T09:49:51;100180.0;;;10.28;71.45
36834;BME280;48003;52.084;5.224;2024-03-02T09:53:04;100182.0;;;10.28;70.19
36834;BME280;48003;52.084;5.224;2024-03-02T09:54:41;100166.0;;;10.24;69.62
36834;BME280;48003;52.084;5.224;2024-03-02T09:56:17;100171.0;;;10.51;69.36
36834;BME280;48003;52.084;5.224;2024-03-02T09:57:53;100166.0;;;10.37;69.47
36834;BME280;48003;52.084;5.224;2024-03-02T10:01:05;100172.0;;;10.27;69.67
36834;BME280;48003;52.084;5.224;2024-03-02T10:02:42;100176.0;;;10.67;69.06
36834;BME280;48003;52.084;5.224;2024-03-02T10:04:18;100170.0;;;10.65;68.64
36834;BME280;48003;52.084;5.224;2024-03-02T10:07:30;100166.0;;;10.43;67.67
36834;BME280;48003;52.084;5.224;2024-03-02T10:09:06;100176.0;;;10.51;68.19
36834;BME280;48003;52.084;5.224;2024-03-02T10:10:42;100174.0;;;10.78;68.13
36834;BME280;48003;52.084;5.224;2024-03-02T10:14:04;100166.0;;;10.83;67.66
36834;BME280;48003;52.084;5.224;2024-03-02T10:15:44;100175.0;;;10.88;67.39
36834;BME280;48003;52.084;5.224;2024-03-02T10:17:20;100170.0;;;11.02;67.08
36834;BME280;48003;52.084;5.224;2024-03-02T10:18:57;100175.0;;;11.02;66.45
36834;BME280;48003;52.084;5.224;2024-03-02T10:22:09;100173.0;;;10.86;64.77
36834;BME280;48003;52.084;5.224;2024-03-02T10:23:46;100176.0;;;10.94;64.52
36834;BME280;48003;52.084;5.224;2024-03-02T10:25:30;100175.0;;;11.0;64.41
36834;BME280;48003;52.084;5.224;2024-03-02T10:27:08;100161.0;;;10.98;64.83
36834;BME280;48003;52.084;5.224;2024-03-02T10:30:23;100165.0;;;11.09;65.19
36834;BME280;48003;52.084;5.224;2024-03-02T10:32:02;100163.0;;;11.2;65.38
36834;BME280;48003;52.084;5.224;2024-03-02T10:33:39;100170.0;;;11.24;64.97
36834;BME280;48003;52.084;5.224;2024-03-02T10:36:53;100157.0;;;11.16;64.16
36834;BME280;48003;52.084;5.224;2024-03-02T10:38:31;100155.0;;;11.41;63.32
36834;BME280;48003;52.084;5.224;2024-03-02T10:40:08;100166.0;;;11.33;62.81
36834;BME280;48003;52.084;5.224;2024-03-02T10:41:49;100156.0;;;11.34;63.36
36834;BME280;48003;52.084;5.224;2024-03-02T10:45:06;100151.0;;;11.52;63.87
36834;BME280;48003;52.084;5.224;2024-03-02T10:46:45;100145.0;;;11.68;63.28
36834;BME280;48003;52.084;5.224;2024-03-02T10:48:25;100141.0;;;11.73;62.55
36834;BME280;48003;52.084;5.224;2024-03-02T10:51:41;100143.0;;;11.83;61.42
36834;BME280;48003;52.084;5.224;2024-03-02T10:53:18;100142.0;;;11.63;60.94
36834;BME280;48003;52.084;5.224;2024-03-02T10:54:54;100140.0;;;11.9;61.0
36834;BME280;48003;52.084;5.224;2024-03-02T10:56:31;100138.0;;;11.75;61.04
36834;BME280;48003;52.084;5.224;2024-03-02T10:59:52;100123.0;;;11.82;61.48
36834;BME280;48003;52.084;5.224;2024-03-02T11:01:32;100119.0;;;11.91;62.0
36834;BME280;48003;52.084;5.224;2024-03-02T11:03:11;100126.0;;;11.82;61.32
36834;BME280;48003;52.084;5.224;2024-03-02T11:04:49;100128.0;;;11.91;61.3
36834;BME280;48003;52.084;5.224;2024-03-02T11:08:06;100141.0;;;11.96;60.02
36834;BME280;48003;52.084;5.224;2024-03-02T11:09:49;100136.0;;;11.92;60.94
36834;BME280;48003;52.084;5.224;2024-03-02T11:11:32;100128.0;;;12.19;60.25
36834;BME280;48003;52.084;5.224;2024-03-02T11:13:12;100132.0;;;12.32;60.78
36834;BME280;48003;52.084;5.224;2024-03-02T11:16:32;100132.0;;;12.39;58.98
36834;BME280;48003;52.084;5.224;2024-03-02T11:18:10;100140.0;;;12.38;58.6